BNE weather

Brisbane International Airport
Brisbane, Queensland, Australia

Public forecast

Using degrees Celsius for public forecast. Weather courtesy of forecast.io.

METAR (pilot weather report)

Retrieved 2017/08/17 03:30 UTC (0 seconds ago):

YBBN 170330Z 02012KT CAVOK 27/16 Q1008 NOSIG

TAF (pilot weather forecast)

Forecast is more than 6 hours old.

Retrieved 2017/08/16 18:35 UTC (8 hours ago):

TAF YBBN 161710Z 1618/1724 34008KT CAVOK FM170300 03010KT CAVOK FM170800 25007KT CAVOK FM171800 25012KT CAVOK